createdAt,value
2019-05-28T00:01:56.250Z,72.96
2019-05-28T00:04:27.489Z,73.21
2019-05-28T00:07:04.081Z,72.87
2019-05-28T00:09:37.187Z,72.13
2019-05-28T00:12:09.274Z,72.18
2019-05-28T00:14:41.650Z,72.52
2019-05-28T00:17:15.591Z,74.84
2019-05-28T00:19:49.159Z,77.05
2019-05-28T00:22:21.662Z,78.34
2019-05-28T00:24:55.438Z,78.67
2019-05-28T00:27:27.192Z,79.83
2019-05-28T00:30:18.617Z,80.68
2019-05-28T00:32:36.550Z,81.45
2019-05-28T00:35:08.716Z,81.90
2019-05-28T00:37:46.059Z,82.87
2019-05-28T00:40:48.413Z,83.50
2019-05-28T00:43:23.899Z,84.01
2019-05-28T00:45:57.435Z,83.73
2019-05-28T00:48:30.414Z,84.66
2019-05-28T00:51:20.790Z,83.97
2019-05-28T00:53:54.519Z,84.10
2019-05-28T00:56:27.812Z,84.81
2019-05-28T00:59:01.095Z,84.96
2019-05-28T01:01:33.461Z,84.49
2019-05-28T01:04:08.121Z,85.63
2019-05-28T01:06:42.719Z,85.99
2019-05-28T01:09:16.274Z,85.96
2019-05-28T01:11:48.636Z,82.88
2019-05-28T01:14:22.433Z,80.27
2019-05-28T01:16:58.246Z,78.85
2019-05-28T01:19:29.601Z,78.17
2019-05-28T01:22:02.747Z,79.17
2019-05-28T01:24:35.920Z,78.06
2019-05-28T01:27:10.858Z,76.30
2019-05-28T01:29:45.295Z,78.88
2019-05-28T01:32:20.438Z,82.76
2019-05-28T01:34:53.908Z,85.55
2019-05-28T01:37:28.233Z,86.32
2019-05-28T01:40:03.648Z,88.46
2019-05-28T01:42:36.996Z,91.29
2019-05-28T01:45:11.186Z,89.78
2019-05-28T01:47:44.770Z,88.03
2019-05-28T01:50:35.778Z,86.93
2019-05-28T01:53:09.486Z,86.95
2019-05-28T01:55:42.286Z,87.19
2019-05-28T01:58:14.779Z,86.75
2019-05-28T02:01:12.870Z,87.43
2019-05-28T02:03:38.570Z,87.12
2019-05-28T02:06:11.889Z,86.84
2019-05-28T02:08:44.878Z,87.86
2019-05-28T02:11:19.688Z,89.30
2019-05-28T02:13:55.308Z,90.48
2019-05-28T02:16:27.662Z,90.91
2019-05-28T02:19:00.628Z,91.43
2019-05-28T02:21:35.352Z,92.11
2019-05-28T02:24:09.686Z,92.67
2019-05-28T02:26:43.103Z,92.63
2019-05-28T02:29:15.820Z,92.01
2019-05-28T02:31:48.866Z,92.76
2019-05-28T02:34:22.730Z,92.20
2019-05-28T02:36:55.662Z,90.43
2019-05-28T02:39:27.185Z,89.51
2019-05-28T02:42:01.934Z,88.84
2019-05-28T02:44:34.997Z,88.80
2019-05-28T02:47:08.897Z,88.52
2019-05-28T02:49:43.920Z,88.80
2019-05-28T02:52:18.293Z,88.42
2019-05-28T02:54:50.932Z,89.07
2019-05-28T02:57:24.814Z,88.59
2019-05-28T03:00:00.616Z,88.48
2019-05-28T03:02:34.116Z,87.68
2019-05-28T03:05:07.387Z,85.59
2019-05-28T03:07:41.167Z,84.36
2019-05-28T03:10:58.489Z,81.21
2019-05-28T03:13:06.426Z,82.38
2019-05-28T03:16:05.037Z,82.93
2019-05-28T03:18:40.576Z,81.85
2019-05-28T03:21:13.576Z,80.28
2019-05-28T03:23:45.100Z,80.24
2019-05-28T03:26:23.648Z,80.17
2019-05-28T03:28:57.946Z,79.93
2019-05-28T03:31:30.197Z,79.33
2019-05-28T03:34:05.376Z,79.26
2019-05-28T03:36:40.512Z,80.91
2019-05-28T03:39:13.260Z,81.39
2019-05-28T03:41:46.144Z,82.62
2019-05-28T03:44:18.388Z,82.99
2019-05-28T03:46:51.328Z,81.37
2019-05-28T03:49:29.394Z,79.58
2019-05-28T03:52:04.936Z,78.98
2019-05-28T03:54:37.213Z,78.01
2019-05-28T03:57:11.166Z,78.17
2019-05-28T03:59:46.016Z,78.88
2019-05-28T04:02:23.698Z,79.63
2019-05-28T04:04:54.680Z,80.25
2019-05-28T04:07:28.466Z,81.08
2019-05-28T04:10:02.244Z,81.32
2019-05-28T04:12:38.058Z,82.82
2019-05-28T04:15:12.792Z,81.45
2019-05-28T04:17:46.388Z,81.40
2019-05-28T04:20:22.264Z,81.08
2019-05-28T04:23:16.446Z,80.58
2019-05-28T04:25:48.395Z,81.16
2019-05-28T04:28:21.679Z,79.59
2019-05-28T04:31:04.782Z,80.90
2019-05-28T04:33:36.367Z,83.83
2019-05-28T04:36:10.777Z,85.24
2019-05-28T04:38:44.254Z,82.76
2019-05-28T04:41:16.753Z,79.77
2019-05-28T04:43:51.884Z,77.10
2019-05-28T04:46:23.392Z,75.27
2019-05-28T04:48:56.318Z,74.50
2019-05-28T04:51:29.372Z,74.55
2019-05-28T04:54:02.184Z,73.08
2019-05-28T04:56:33.494Z,71.85
2019-05-28T04:59:08.396Z,71.43
2019-05-28T05:01:39.609Z,72.67
2019-05-28T05:04:15.116Z,75.02
2019-05-28T05:06:46.402Z,73.99
2019-05-28T05:09:18.721Z,74.06
2019-05-28T05:11:51.697Z,73.90
2019-05-28T05:14:24.252Z,74.30
2019-05-28T05:16:57.677Z,75.31
2019-05-28T05:19:28.913Z,74.22
2019-05-28T05:22:02.483Z,72.09
2019-05-28T05:24:35.107Z,70.81
2019-05-28T05:27:08.387Z,69.82
2019-05-28T05:29:40.764Z,71.11
2019-05-28T05:32:13.921Z,70.09
2019-05-28T05:34:46.832Z,75.06
2019-05-28T05:37:19.728Z,76.05
2019-05-28T05:39:54.082Z,74.20
2019-05-28T05:42:29.551Z,72.20
2019-05-28T05:45:07.375Z,71.50
2019-05-28T05:47:39.874Z,71.39
2019-05-28T05:50:11.607Z,75.45
2019-05-28T05:52:50.171Z,74.77
2019-05-28T05:55:35.196Z,73.16
2019-05-28T05:58:08.452Z,72.51
2019-05-28T06:00:53.142Z,72.23
2019-05-28T06:03:39.833Z,72.92
2019-05-28T06:06:01.425Z,70.04
2019-05-28T06:08:33.051Z,72.03
2019-05-28T06:11:13.686Z,75.24
2019-05-28T06:13:48.635Z,73.66
2019-05-28T06:16:20.930Z,74.11
2019-05-28T06:18:55.995Z,73.18
2019-05-28T06:21:30.013Z,72.63
2019-05-28T06:24:02.041Z,72.22
2019-05-28T06:26:35.801Z,76.13
2019-05-28T06:29:09.972Z,75.77
2019-05-28T06:31:41.927Z,75.58
2019-05-28T06:34:17.725Z,74.91
2019-05-28T06:36:52.921Z,73.08
2019-05-28T06:39:24.382Z,74.98
2019-05-28T06:41:58.039Z,73.43
2019-05-28T06:44:32.106Z,71.70
2019-05-28T06:47:07.603Z,71.15
2019-05-28T06:49:42.055Z,72.46
2019-05-28T06:52:15.665Z,73.93
2019-05-28T06:54:49.104Z,74.92
2019-05-28T06:57:23.123Z,74.05
2019-05-28T06:59:59.004Z,75.35
2019-05-28T07:02:34.801Z,75.52
2019-05-28T07:05:09.357Z,75.44
2019-05-28T07:07:43.783Z,76.33
2019-05-28T07:10:34.141Z,75.33
2019-05-28T07:13:06.287Z,82.18
2019-05-28T07:15:47.806Z,81.52
2019-05-28T07:18:19.182Z,82.41
2019-05-28T07:20:55.346Z,82.09
2019-05-28T07:23:29.464Z,86.83
2019-05-28T07:26:01.385Z,82.59
2019-05-28T07:28:37.280Z,82.56
2019-05-28T07:31:12.931Z,81.54
2019-05-28T07:33:45.847Z,80.72
2019-05-28T07:36:21.098Z,83.38
2019-05-28T07:38:56.196Z,83.05
2019-05-28T07:41:30.418Z,81.76
2019-05-28T07:44:05.521Z,79.25
2019-05-28T07:46:41.647Z,80.22
2019-05-28T07:49:15.942Z,82.55
2019-05-28T07:51:48.443Z,83.84
2019-05-28T07:54:21.452Z,83.17
2019-05-28T07:56:52.677Z,82.90
2019-05-28T07:59:24.497Z,84.50
2019-05-28T08:01:57.648Z,86.45
2019-05-28T08:04:29.139Z,85.49
2019-05-28T08:07:02.988Z,85.51
2019-05-28T08:09:34.777Z,89.02
2019-05-28T08:12:09.912Z,85.10
2019-05-28T08:14:41.685Z,90.24
2019-05-28T08:17:13.521Z,90.12
2019-05-28T08:19:46.381Z,89.23
2019-05-28T08:22:20.794Z,84.13
2019-05-28T08:24:54.936Z,80.76
2019-05-28T08:27:27.541Z,82.20
2019-05-28T08:30:01.243Z,82.93
2019-05-28T08:32:35.692Z,82.99
2019-05-28T08:35:08.668Z,82.49
2019-05-28T08:37:42.568Z,82.77
2019-05-28T08:40:20.422Z,82.27
2019-05-28T08:43:07.656Z,85.12
2019-05-28T08:45:42.768Z,88.16
2019-05-28T08:48:14.693Z,90.73
2019-05-28T08:50:48.866Z,88.18
2019-05-28T08:53:23.577Z,86.10
2019-05-28T08:55:55.909Z,87.96
2019-05-28T08:58:27.692Z,88.63
2019-05-28T09:01:02.763Z,86.49
2019-05-28T09:03:36.755Z,86.52
2019-05-28T09:06:11.318Z,87.11
2019-05-28T09:08:44.178Z,88.92
2019-05-28T09:11:17.882Z,88.91
2019-05-28T09:13:52.031Z,88.92
2019-05-28T09:16:25.632Z,89.62
2019-05-28T09:18:57.981Z,91.03
2019-05-28T09:21:30.707Z,92.20
2019-05-28T09:24:04.120Z,92.82
2019-05-28T09:26:37.070Z,92.71
2019-05-28T09:29:11.645Z,92.34
2019-05-28T09:31:46.636Z,91.25
2019-05-28T09:34:18.778Z,89.25
2019-05-28T09:36:52.338Z,89.21
2019-05-28T09:39:24.336Z,88.58
2019-05-28T09:41:59.678Z,87.77
2019-05-28T09:44:32.168Z,84.78
2019-05-28T09:47:05.826Z,84.98
2019-05-28T09:49:38.144Z,86.56
2019-05-28T09:52:11.321Z,86.75
2019-05-28T09:54:44.132Z,86.95
2019-05-28T09:57:16.239Z,86.52
2019-05-28T09:59:50.259Z,87.25
2019-05-28T10:02:23.929Z,87.35
2019-05-28T10:05:02.445Z,87.84
2019-05-28T10:07:35.799Z,87.52
2019-05-28T10:10:09.486Z,87.39
2019-05-28T10:12:51.475Z,87.86
2019-05-28T10:15:26.183Z,88.36
2019-05-28T10:17:58.041Z,86.86
2019-05-28T10:20:31.294Z,86.79
2019-05-28T10:23:07.408Z,83.06
2019-05-28T10:25:50.963Z,84.30
2019-05-28T10:28:23.994Z,83.94
2019-05-28T10:30:57.858Z,84.09
2019-05-28T10:33:31.175Z,83.36
2019-05-28T10:36:04.307Z,81.08
2019-05-28T10:38:38.730Z,80.91
2019-05-28T10:41:11.852Z,80.98
2019-05-28T10:43:43.071Z,80.71
2019-05-28T10:46:17.960Z,80.74
2019-05-28T10:48:49.256Z,82.80
2019-05-28T10:51:25.068Z,81.41
2019-05-28T10:53:59.852Z,80.63
2019-05-28T10:56:33.990Z,80.61
2019-05-28T10:59:06.431Z,77.42
2019-05-28T11:01:39.278Z,78.16
2019-05-28T11:04:12.293Z,79.52
2019-05-28T11:06:52.219Z,80.62
2019-05-28T11:09:26.160Z,79.78
2019-05-28T11:11:58.547Z,78.33
2019-05-28T11:14:32.493Z,76.69
2019-05-28T11:17:06.483Z,74.59
2019-05-28T11:19:40.735Z,75.16
2019-05-28T11:22:15.325Z,74.59
2019-05-28T11:24:49.106Z,73.74
2019-05-28T11:27:24.083Z,74.36
2019-05-28T11:29:57.487Z,72.59
2019-05-28T11:32:30.506Z,72.86
2019-05-28T11:35:03.538Z,72.71
2019-05-28T11:37:37.556Z,73.67
2019-05-28T11:40:12.217Z,73.14
2019-05-28T11:42:58.241Z,74.49
2019-05-28T11:45:36.521Z,72.23
2019-05-28T11:48:09.951Z,70.38
2019-05-28T11:50:42.611Z,71.10
2019-05-28T11:53:26.221Z,71.58
2019-05-28T11:55:59.484Z,70.03
2019-05-28T11:58:35.733Z,72.72
2019-05-28T12:01:07.489Z,73.13
2019-05-28T12:03:39.504Z,73.36
2019-05-28T12:06:13.148Z,73.91
2019-05-28T12:08:47.489Z,73.57
2019-05-28T12:11:20.832Z,73.23
2019-05-28T12:13:53.636Z,72.06
2019-05-28T12:16:24.955Z,73.93
2019-05-28T12:18:58.529Z,73.95
2019-05-28T12:21:30.776Z,73.69
2019-05-28T12:24:05.600Z,74.62
2019-05-28T12:26:43.080Z,74.89
2019-05-28T12:29:16.628Z,74.65
2019-05-28T12:31:51.447Z,74.48
2019-05-28T12:34:24.674Z,78.01
2019-05-28T12:36:58.620Z,78.16
2019-05-28T12:39:34.261Z,78.46
2019-05-28T12:42:08.538Z,76.27
2019-05-28T12:44:43.182Z,76.59
2019-05-28T12:47:18.215Z,79.98
2019-05-28T12:49:53.603Z,81.31
2019-05-28T12:52:27.224Z,84.63
2019-05-28T12:54:59.895Z,85.90
2019-05-28T12:57:35.459Z,85.27
2019-05-28T13:00:10.367Z,86.29
2019-05-28T13:02:43.655Z,85.62
2019-05-28T13:05:19.506Z,86.78
2019-05-28T13:08:08.958Z,86.33
2019-05-28T13:10:40.324Z,85.00
2019-05-28T13:13:26.688Z,85.48
2019-05-28T13:15:58.136Z,84.87
2019-05-28T13:18:32.496Z,84.83
2019-05-28T13:21:06.537Z,85.89
2019-05-28T13:23:39.882Z,84.97
2019-05-28T13:26:14.841Z,84.76
2019-05-28T13:28:47.875Z,83.51
2019-05-28T13:31:25.375Z,83.78
2019-05-28T13:33:58.804Z,82.77
2019-05-28T13:36:32.596Z,83.73
2019-05-28T13:39:07.951Z,82.62
2019-05-28T13:41:41.091Z,81.71
2019-05-28T13:44:13.119Z,80.97
2019-05-28T13:46:47.622Z,80.64
2019-05-28T13:49:20.389Z,80.11
2019-05-28T13:51:53.048Z,79.25
2019-05-28T13:54:26.148Z,77.24
2019-05-28T13:57:01.842Z,77.48
2019-05-28T13:59:36.013Z,76.89
2019-05-28T14:02:13.735Z,75.87
2019-05-28T14:04:47.081Z,76.41
2019-05-28T14:07:21.005Z,79.17
2019-05-28T14:09:56.875Z,82.70
2019-05-28T14:12:28.288Z,82.71
2019-05-28T14:15:02.401Z,79.81
2019-05-28T14:17:34.238Z,77.36
2019-05-28T14:20:11.078Z,77.81
2019-05-28T14:22:43.641Z,76.88
2019-05-28T14:25:16.933Z,77.67
2019-05-28T14:27:50.579Z,77.45
2019-05-28T14:30:39.276Z,76.29
2019-05-28T14:33:12.387Z,75.85
2019-05-28T14:35:48.421Z,76.99
2019-05-28T14:38:20.431Z,79.54
2019-05-28T14:40:57.365Z,78.77
2019-05-28T14:43:32.611Z,76.32
2019-05-28T14:46:18.534Z,78.81
2019-05-28T14:48:55.135Z,77.76
2019-05-28T14:51:29.455Z,76.81
2019-05-28T14:54:01.476Z,77.70
2019-05-28T14:56:34.493Z,77.55
2019-05-28T14:59:07.462Z,78.70
2019-05-28T15:01:41.731Z,77.18
2019-05-28T15:04:15.497Z,77.88
2019-05-28T15:06:47.019Z,78.29
2019-05-28T15:09:21.529Z,78.36
2019-05-28T15:11:52.624Z,78.64
2019-05-28T15:14:24.757Z,78.15
2019-05-28T15:16:59.390Z,78.19
2019-05-28T15:19:32.563Z,77.29
2019-05-28T15:22:04.809Z,77.63
2019-05-28T15:24:38.550Z,77.67
2019-05-28T15:27:10.551Z,77.76
2019-05-28T15:29:42.935Z,78.50
2019-05-28T15:32:17.439Z,78.57
2019-05-28T15:34:48.618Z,78.79
2019-05-28T15:37:26.173Z,78.87
2019-05-28T15:39:57.624Z,78.93
2019-05-28T15:42:32.227Z,78.33
2019-05-28T15:45:03.652Z,77.83
2019-05-28T15:47:37.691Z,77.46
2019-05-28T15:50:15.850Z,77.66
2019-05-28T15:53:04.961Z,77.69
2019-05-28T15:55:49.642Z,77.77
2019-05-28T15:58:21.740Z,77.42
2019-05-28T16:00:56.529Z,77.87
2019-05-28T16:03:30.786Z,78.16
2019-05-28T16:06:13.848Z,77.71
2019-05-28T16:11:32.323Z,77.85
2019-05-28T16:14:04.567Z,77.31
2019-05-28T16:16:36.700Z,76.63
2019-05-28T16:19:09.563Z,77.28
2019-05-28T16:21:42.496Z,77.36
2019-05-28T16:24:14.104Z,77.50
2019-05-28T16:26:47.949Z,77.48
2019-05-28T16:29:19.998Z,78.02
2019-05-28T16:31:53.769Z,78.31
2019-05-28T16:34:25.078Z,78.73
2019-05-28T16:36:56.959Z,79.15
2019-05-28T16:39:29.572Z,78.60
2019-05-28T16:42:01.903Z,78.78
2019-05-28T16:44:33.099Z,78.89
2019-05-28T16:47:17.271Z,78.93
2019-05-28T16:49:43.839Z,78.96
2019-05-28T16:52:16.016Z,78.88
2019-05-28T16:54:48.058Z,78.99
2019-05-28T16:57:21.412Z,79.13
2019-05-28T16:59:54.064Z,79.50
2019-05-28T17:02:25.485Z,79.49
2019-05-28T17:04:58.168Z,79.85
2019-05-28T17:07:32.355Z,80.10
2019-05-28T17:10:07.415Z,80.32
2019-05-28T17:12:40.337Z,80.88
2019-05-28T17:15:32.668Z,80.63
2019-05-28T17:18:16.968Z,80.46
2019-05-28T17:20:50.112Z,81.28
2019-05-28T17:23:22.559Z,80.77
2019-05-28T17:25:57.708Z,81.23
2019-05-28T17:28:32.449Z,82.26
2019-05-28T17:31:24.799Z,82.55
2019-05-28T17:33:58.628Z,83.03
2019-05-28T17:36:31.003Z,84.61
2019-05-28T17:39:10.589Z,84.71
2019-05-28T17:41:43.289Z,85.70
2019-05-28T17:44:17.473Z,87.48
2019-05-28T17:46:49.286Z,88.49
2019-05-28T17:49:22.256Z,88.53
2019-05-28T17:51:55.226Z,88.76
2019-05-28T17:54:28.806Z,89.58
2019-05-28T17:57:01.215Z,89.99
2019-05-28T17:59:57.961Z,90.72
2019-05-28T18:02:31.934Z,91.43
2019-05-28T18:05:06.662Z,93.30
2019-05-28T18:07:40.221Z,93.98
2019-05-28T18:10:44.248Z,94.35
2019-05-28T18:13:18.976Z,94.16
2019-05-28T18:15:52.346Z,94.11
2019-05-28T18:18:26.177Z,93.66
2019-05-28T18:21:07.172Z,93.57
2019-05-28T18:23:40.400Z,92.01
2019-05-28T18:26:12.948Z,91.45
2019-05-28T18:28:47.159Z,90.62
2019-05-28T18:31:20.419Z,90.88
2019-05-28T18:33:52.509Z,89.81
2019-05-28T18:36:25.132Z,89.48
2019-05-28T18:38:59.221Z,89.74
2019-05-28T18:41:33.493Z,89.63
2019-05-28T18:44:09.354Z,89.15
2019-05-28T18:46:47.402Z,89.63
2019-05-28T18:49:20.852Z,89.90
2019-05-28T18:51:53.529Z,90.15
2019-05-28T18:54:25.170Z,90.46
2019-05-28T18:56:59.525Z,90.48
2019-05-28T18:59:35.315Z,90.67
2019-05-28T19:02:07.646Z,90.85
2019-05-28T19:04:41.541Z,91.29
2019-05-28T19:07:15.485Z,91.55
2019-05-28T19:09:51.299Z,91.70
2019-05-28T19:12:24.829Z,91.47
2019-05-28T19:14:58.714Z,91.77
2019-05-28T19:17:34.335Z,91.99
2019-05-28T19:20:09.586Z,92.18
2019-05-28T19:22:45.249Z,92.14
2019-05-28T19:25:36.140Z,92.09
2019-05-28T19:28:08.777Z,92.02
2019-05-28T19:30:52.000Z,92.21
2019-05-28T19:33:26.298Z,93.01
2019-05-28T19:36:05.864Z,92.96
2019-05-28T19:38:45.638Z,93.26
2019-05-28T19:41:31.378Z,92.38
2019-05-28T19:44:06.787Z,92.00
2019-05-28T19:46:41.442Z,92.08
2019-05-28T19:49:15.736Z,91.74
2019-05-28T19:51:49.294Z,92.03
2019-05-28T19:54:20.872Z,92.26
2019-05-28T19:56:53.188Z,91.91
2019-05-28T19:59:25.673Z,90.78
2019-05-28T20:01:58.817Z,90.90
2019-05-28T20:04:32.859Z,90.65
2019-05-28T20:07:06.699Z,90.49
2019-05-28T20:09:39.180Z,90.69
2019-05-28T20:12:13.102Z,89.50
2019-05-28T20:14:45.914Z,88.10
2019-05-28T20:17:19.853Z,88.46
2019-05-28T20:19:57.549Z,88.55
2019-05-28T20:22:32.996Z,87.92
2019-05-28T20:25:05.533Z,87.70
2019-05-28T20:27:37.879Z,86.51
2019-05-28T20:30:14.240Z,87.11
2019-05-28T20:33:03.704Z,86.73
2019-05-28T20:35:37.075Z,88.39
2019-05-28T20:38:17.909Z,89.29
2019-05-28T20:40:53.829Z,90.30
2019-05-28T20:43:25.022Z,91.07
2019-05-28T20:45:56.389Z,92.59
2019-05-28T20:48:33.112Z,93.92
2019-05-28T20:51:14.580Z,94.99
2019-05-28T20:53:40.948Z,96.51
2019-05-28T20:56:15.645Z,98.34
2019-05-28T20:58:47.444Z,99.80
2019-05-28T21:01:20.240Z,100.00
2019-05-28T21:03:53.893Z,100.00
2019-05-28T21:06:27.072Z,100.00
2019-05-28T21:08:59.564Z,100.00
2019-05-28T21:11:33.515Z,100.00
2019-05-28T21:14:08.454Z,100.00
2019-05-28T21:16:41.233Z,100.00
2019-05-28T21:19:16.117Z,100.00
2019-05-28T21:21:51.460Z,100.00
2019-05-28T21:24:27.226Z,100.00
2019-05-28T21:27:01.151Z,100.00
2019-05-28T21:29:34.545Z,99.70
2019-05-28T21:32:07.452Z,99.64
2019-05-28T21:34:39.504Z,99.44
2019-05-28T21:37:12.486Z,100.00
2019-05-28T21:39:45.823Z,100.00
2019-05-28T21:42:19.407Z,99.97
2019-05-28T21:44:54.050Z,99.88
2019-05-28T21:47:25.475Z,99.30
2019-05-28T21:49:59.288Z,98.76
2019-05-28T21:52:31.442Z,97.63
2019-05-28T21:55:04.894Z,96.80
2019-05-28T21:57:43.133Z,96.75
2019-05-28T22:00:44.110Z,96.15
2019-05-28T22:03:16.774Z,95.73
2019-05-28T22:05:53.086Z,95.67
2019-05-28T22:08:25.380Z,95.36
2019-05-28T22:11:03.951Z,94.73
2019-05-28T22:13:38.896Z,94.73
2019-05-28T22:16:11.413Z,94.47
2019-05-28T22:18:45.192Z,94.21
2019-05-28T22:21:16.634Z,93.77
2019-05-28T22:23:51.322Z,93.68
2019-05-28T22:26:22.595Z,93.40
2019-05-28T22:28:57.372Z,93.58
2019-05-28T22:31:33.175Z,93.73
2019-05-28T22:34:05.240Z,93.70
2019-05-28T22:36:38.979Z,93.20
2019-05-28T22:39:10.900Z,92.88
2019-05-28T22:41:47.193Z,92.77
2019-05-28T22:44:19.676Z,92.72
2019-05-28T22:46:53.703Z,93.44
2019-05-28T22:49:25.265Z,92.23
2019-05-28T22:51:57.835Z,91.91
2019-05-28T22:54:30.910Z,92.23
2019-05-28T22:57:06.848Z,92.54
2019-05-28T22:59:39.551Z,91.90
2019-05-28T23:02:15.707Z,91.80
2019-05-28T23:04:46.931Z,91.20
2019-05-28T23:07:19.685Z,90.84
2019-05-28T23:09:53.576Z,90.19
2019-05-28T23:12:25.258Z,90.12
2019-05-28T23:14:56.731Z,89.34
2019-05-28T23:17:29.653Z,89.93
2019-05-28T23:20:06.702Z,89.55
2019-05-28T23:22:41.570Z,88.93
2019-05-28T23:25:14.491Z,89.53
2019-05-28T23:27:49.377Z,88.98
2019-05-28T23:30:36.224Z,89.05
2019-05-28T23:33:12.136Z,88.51
2019-05-28T23:35:59.206Z,88.09
2019-05-28T23:38:31.684Z,87.92
2019-05-28T23:41:05.204Z,87.87
2019-05-28T23:43:37.981Z,88.59
2019-05-28T23:46:12.094Z,88.61
2019-05-28T23:48:43.933Z,88.35
2019-05-28T23:51:16.989Z,88.99
2019-05-28T23:53:51.069Z,87.99
2019-05-28T23:56:24.813Z,88.31
2019-05-28T23:59:02.259Z,87.92
